createdAt,value
2022-12-11T00:01:14.755Z,8.47
2022-12-11T00:03:43.246Z,7.03
2022-12-11T00:06:14.920Z,6.93
2022-12-11T00:08:43.857Z,6.60
2022-12-11T00:11:14.305Z,7.43
2022-12-11T00:13:42.905Z,7.80
2022-12-11T00:16:11.867Z,8.03
2022-12-11T00:18:40.675Z,7.70
2022-12-11T00:21:11.749Z,7.70
2022-12-11T00:23:42.435Z,7.20
2022-12-11T00:26:14.349Z,8.30
2022-12-11T00:28:43.616Z,8.53
2022-12-11T00:31:16.335Z,7.83
2022-12-11T00:33:45.316Z,9.27
2022-12-11T00:36:15.237Z,9.57
2022-12-11T00:38:44.936Z,9.37
2022-12-11T00:41:13.778Z,8.83
2022-12-11T00:43:42.176Z,8.80
2022-12-11T00:46:10.847Z,8.30
2022-12-11T00:48:39.838Z,9.17
2022-12-11T00:51:08.924Z,10.47
2022-12-11T00:53:37.248Z,11.03
2022-12-11T00:56:13.630Z,13.67
2022-12-11T00:58:42.061Z,15.63
2022-12-11T01:01:13.436Z,15.23
2022-12-11T01:03:41.949Z,15.13
2022-12-11T01:06:15.395Z,14.17
2022-12-11T01:08:44.220Z,15.67
2022-12-11T01:11:14.268Z,14.90
2022-12-11T01:13:42.967Z,15.60
2022-12-11T01:16:13.310Z,14.60
2022-12-11T01:18:42.041Z,14.13
2022-12-11T01:21:12.599Z,13.63
2022-12-11T01:23:41.794Z,11.30
2022-12-11T01:26:12.148Z,10.87
2022-12-11T01:28:42.641Z,10.60
2022-12-11T01:31:12.177Z,10.13
2022-12-11T01:33:41.045Z,11.33
2022-12-11T01:36:11.071Z,11.50
2022-12-11T01:38:39.493Z,12.40
2022-12-11T01:41:10.407Z,12.37
2022-12-11T01:44:03.184Z,11.57
2022-12-11T01:46:32.813Z,9.93
2022-12-11T01:49:02.363Z,9.83
2022-12-11T01:51:32.518Z,9.07
2022-12-11T01:54:06.551Z,10.90
2022-12-11T01:56:36.500Z,10.33
2022-12-11T01:59:09.503Z,10.13
2022-12-11T02:01:41.423Z,10.10
2022-12-11T02:04:11.046Z,9.97
2022-12-11T02:06:41.197Z,10.00
2022-12-11T02:09:13.290Z,9.50
2022-12-11T02:11:54.224Z,10.23
2022-12-11T02:14:31.536Z,9.87
2022-12-11T02:17:06.093Z,9.10
2022-12-11T02:19:54.441Z,9.10
2022-12-11T02:22:35.329Z,9.80
2022-12-11T02:25:12.464Z,9.20
2022-12-11T02:27:46.097Z,9.80
2022-12-11T02:30:17.403Z,9.30
2022-12-11T02:32:49.355Z,9.00
2022-12-11T02:35:23.636Z,10.27
2022-12-11T02:37:59.117Z,9.57
2022-12-11T02:40:32.780Z,9.60
2022-12-11T02:43:05.528Z,9.03
2022-12-11T02:45:36.716Z,8.87
2022-12-11T02:48:08.451Z,8.63
2022-12-11T02:50:40.640Z,8.30
2022-12-11T02:53:12.481Z,8.43
2022-12-11T02:55:43.272Z,8.60
2022-12-11T02:58:17.319Z,9.53
2022-12-11T03:00:48.551Z,9.90
2022-12-11T03:03:17.121Z,10.10
2022-12-11T03:10:44.311Z,7.20
2022-12-11T03:13:16.529Z,7.63
2022-12-11T03:15:57.832Z,6.13
2022-12-11T03:18:35.805Z,6.00
2022-12-11T03:21:09.901Z,6.07
2022-12-11T03:23:45.923Z,5.70
2022-12-11T03:26:16.934Z,6.47
2022-12-11T03:28:50.846Z,5.47
2022-12-11T03:31:25.314Z,6.23
2022-12-11T03:33:57.664Z,5.10
2022-12-11T03:36:29.333Z,5.00
2022-12-11T03:39:01.460Z,4.70
2022-12-11T03:41:32.431Z,4.10
2022-12-11T03:44:02.134Z,3.67
2022-12-11T03:46:34.215Z,3.67
2022-12-11T03:49:06.991Z,3.30
2022-12-11T03:51:36.909Z,3.17
2022-12-11T03:54:05.505Z,3.60
2022-12-11T03:56:37.523Z,4.00
2022-12-11T03:59:07.285Z,3.93
2022-12-11T04:01:35.608Z,3.70
2022-12-11T04:04:04.142Z,3.77
2022-12-11T04:06:32.582Z,3.50
2022-12-11T04:09:00.928Z,3.23
2022-12-11T04:11:39.648Z,3.10
2022-12-11T04:14:28.763Z,2.93
2022-12-11T04:16:58.024Z,2.20
2022-12-11T04:19:44.082Z,2.23
2022-12-11T04:22:30.999Z,2.87
2022-12-11T04:24:59.400Z,2.23
2022-12-11T04:28:00.039Z,2.20
2022-12-11T04:30:34.156Z,2.53
2022-12-11T04:33:02.913Z,3.73
2022-12-11T04:35:31.497Z,1.40
2022-12-11T04:37:59.806Z,1.77
2022-12-11T04:40:28.217Z,1.83
2022-12-11T04:42:56.515Z,1.57
2022-12-11T04:45:24.868Z,1.43
2022-12-11T04:47:54.551Z,1.40
2022-12-11T04:50:22.783Z,2.27
2022-12-11T04:52:51.070Z,1.30
2022-12-11T04:55:19.711Z,1.83
2022-12-11T04:57:47.949Z,1.67
2022-12-11T05:00:17.383Z,1.40
2022-12-11T05:02:45.757Z,3.07
2022-12-11T05:05:15.390Z,19.50
2022-12-11T05:07:43.911Z,21.97
2022-12-11T05:10:12.409Z,22.53
2022-12-11T05:12:40.815Z,17.40
2022-12-11T05:15:10.305Z,23.60
2022-12-11T05:17:39.036Z,21.13
2022-12-11T05:20:08.631Z,18.77
2022-12-11T05:22:38.655Z,11.90
2022-12-11T05:25:08.203Z,18.30
2022-12-11T05:27:36.723Z,16.70
2022-12-11T05:30:06.334Z,12.17
2022-12-11T05:32:34.776Z,7.17
2022-12-11T05:35:04.158Z,4.70
2022-12-11T05:37:34.645Z,3.50
2022-12-11T05:40:06.352Z,2.77
2022-12-11T05:42:35.080Z,2.53
2022-12-11T05:45:03.574Z,5.33
2022-12-11T05:47:32.955Z,2.83
2022-12-11T05:50:01.501Z,3.10
2022-12-11T05:52:30.369Z,2.90
2022-12-11T05:54:58.701Z,3.57
2022-12-11T05:57:28.426Z,2.03
2022-12-11T05:59:56.776Z,4.40
2022-12-11T06:02:25.300Z,3.80
2022-12-11T06:04:53.648Z,2.70
2022-12-11T06:07:21.903Z,4.00
2022-12-11T06:09:50.211Z,2.47
2022-12-11T06:12:18.515Z,1.37
2022-12-11T06:14:48.267Z,6.70
2022-12-11T06:17:16.538Z,6.60
2022-12-11T06:19:44.847Z,2.70
2022-12-11T06:22:13.197Z,2.83
2022-12-11T06:24:41.565Z,1.20
2022-12-11T06:27:10.212Z,1.00
2022-12-11T06:29:38.720Z,0.70
2022-12-11T06:32:08.437Z,0.70
2022-12-11T06:34:36.975Z,0.70
2022-12-11T06:37:05.312Z,1.17
2022-12-11T06:39:33.681Z,1.07
2022-12-11T06:42:01.989Z,1.00
2022-12-11T06:44:30.487Z,1.53
2022-12-11T06:46:58.866Z,1.13
2022-12-11T06:49:28.611Z,1.10
2022-12-11T06:51:56.950Z,2.10
2022-12-11T06:54:27.302Z,1.00
2022-12-11T06:56:55.858Z,1.60
2022-12-11T06:59:24.121Z,1.50
2022-12-11T07:01:52.527Z,2.40
2022-12-11T07:04:24.695Z,1.40
2022-12-11T07:06:54.423Z,2.23
2022-12-11T07:09:23.035Z,2.40
2022-12-11T07:11:51.480Z,3.10
2022-12-11T07:14:19.993Z,2.10
2022-12-11T07:16:48.291Z,2.50
2022-12-11T07:19:16.571Z,2.27
2022-12-11T07:21:44.963Z,2.23
2022-12-11T07:24:14.634Z,4.17
2022-12-11T07:26:42.989Z,2.60
2022-12-11T07:29:11.612Z,3.10
2022-12-11T07:31:39.961Z,3.80
2022-12-11T07:34:08.749Z,6.40
2022-12-11T07:36:37.026Z,5.53
2022-12-11T07:39:05.561Z,6.50
2022-12-11T07:41:35.295Z,6.00
2022-12-11T07:44:04.958Z,4.40
2022-12-11T07:46:34.768Z,3.00
2022-12-11T07:49:03.554Z,2.60
2022-12-11T07:51:33.388Z,5.43
2022-12-11T07:54:04.081Z,14.43
2022-12-11T07:56:34.628Z,11.70
2022-12-11T07:59:04.199Z,8.80
2022-12-11T08:01:35.748Z,8.63
2022-12-11T08:04:05.592Z,10.53
2022-12-11T08:06:35.939Z,7.63
2022-12-11T08:09:07.199Z,5.03
2022-12-11T08:11:37.024Z,4.10
2022-12-11T08:14:07.960Z,4.83
2022-12-11T08:16:36.650Z,5.90
2022-12-11T08:19:04.961Z,4.07
2022-12-11T08:21:33.253Z,2.47
2022-12-11T08:24:01.644Z,2.27
2022-12-11T08:26:31.732Z,2.70
2022-12-11T08:29:02.810Z,1.60
2022-12-11T08:31:31.677Z,1.80
2022-12-11T08:34:00.586Z,2.20
2022-12-11T08:36:28.964Z,2.40
2022-12-11T08:38:57.828Z,3.40
2022-12-11T08:41:27.686Z,3.23
2022-12-11T08:43:56.610Z,3.47
2022-12-11T08:46:27.669Z,3.40
2022-12-11T08:48:56.789Z,3.33
2022-12-11T08:51:27.211Z,5.77
2022-12-11T08:53:57.915Z,3.57
2022-12-11T08:56:26.894Z,6.40
2022-12-11T08:58:55.328Z,11.10
2022-12-11T09:01:27.974Z,19.33
2022-12-11T09:03:58.000Z,18.70
2022-12-11T09:06:29.742Z,15.37
2022-12-11T09:09:01.004Z,10.37
2022-12-11T09:11:31.479Z,7.97
2022-12-11T09:14:05.159Z,5.90
2022-12-11T09:16:40.578Z,5.70
2022-12-11T09:19:12.867Z,5.43
2022-12-11T09:21:41.650Z,4.43
2022-12-11T09:24:12.112Z,7.80
2022-12-11T09:26:41.268Z,8.17
2022-12-11T09:29:10.268Z,8.27
2022-12-11T09:31:40.038Z,11.37
2022-12-11T09:34:11.452Z,22.13
2022-12-11T09:36:40.406Z,22.47
2022-12-11T09:39:10.157Z,16.50
2022-12-11T09:41:40.848Z,10.50
2022-12-11T09:44:26.249Z,26.47
2022-12-11T09:46:55.993Z,46.40
2022-12-11T09:49:35.223Z,27.20
2022-12-11T09:52:13.727Z,8.10
2022-12-11T09:54:47.543Z,3.63
2022-12-11T09:57:28.885Z,4.23
2022-12-11T10:00:26.880Z,2.53
2022-12-11T10:03:20.494Z,3.10
2022-12-11T10:06:01.128Z,3.30
2022-12-11T10:08:37.742Z,3.13
2022-12-11T10:11:23.875Z,3.23
2022-12-11T10:14:03.188Z,2.40
2022-12-11T10:16:40.178Z,2.70
2022-12-11T10:19:18.354Z,4.53
2022-12-11T10:21:48.367Z,13.97
2022-12-11T10:24:48.818Z,15.10
2022-12-11T10:27:19.347Z,8.50
2022-12-11T10:29:48.067Z,5.97
2022-12-11T10:32:24.898Z,4.87
2022-12-11T10:35:02.177Z,4.57
2022-12-11T10:37:30.476Z,3.93
2022-12-11T10:39:58.716Z,7.50
2022-12-11T10:42:27.086Z,6.33
2022-12-11T10:45:00.828Z,5.20
2022-12-11T10:47:29.493Z,4.43
2022-12-11T10:50:00.941Z,3.60
2022-12-11T10:52:32.860Z,3.93
2022-12-11T10:55:04.362Z,3.47
2022-12-11T10:57:35.689Z,3.20
2022-12-11T11:00:06.361Z,2.80
2022-12-11T11:02:38.569Z,2.67
2022-12-11T11:05:16.856Z,3.03
2022-12-11T11:07:45.353Z,2.77
2022-12-11T11:10:18.847Z,2.70
2022-12-11T11:12:48.947Z,2.87
2022-12-11T11:15:20.985Z,2.70
2022-12-11T11:17:55.475Z,2.60
2022-12-11T11:20:28.307Z,2.40
2022-12-11T11:22:58.934Z,2.73
2022-12-11T11:25:28.891Z,2.50
2022-12-11T11:27:59.285Z,4.20
2022-12-11T11:30:30.205Z,3.63
2022-12-11T11:33:02.294Z,3.17
2022-12-11T11:35:33.723Z,4.37
2022-12-11T11:38:06.996Z,3.50
2022-12-11T11:40:40.838Z,4.83
2022-12-11T11:43:18.406Z,3.13
2022-12-11T11:45:53.391Z,3.53
2022-12-11T11:48:34.223Z,5.20
2022-12-11T11:51:14.002Z,5.40
2022-12-11T11:53:42.793Z,3.57
2022-12-11T11:56:21.396Z,2.93
2022-12-11T11:59:02.350Z,3.77
2022-12-11T12:01:31.465Z,3.47
2022-12-11T12:04:00.668Z,2.93
2022-12-11T12:06:37.835Z,2.70
2022-12-11T12:09:19.201Z,2.87
2022-12-11T12:11:52.696Z,3.70
2022-12-11T12:14:51.593Z,4.10
2022-12-11T12:17:28.089Z,6.03
2022-12-11T12:20:05.672Z,5.33
2022-12-11T12:22:51.948Z,5.33
2022-12-11T12:25:26.924Z,4.77
2022-12-11T12:28:05.434Z,4.83
2022-12-11T12:30:49.937Z,3.70
2022-12-11T12:33:30.447Z,4.50
2022-12-11T12:36:07.698Z,4.53
2022-12-11T12:38:51.027Z,5.23
2022-12-11T12:41:23.794Z,5.07
2022-12-11T12:44:04.617Z,5.80
2022-12-11T12:46:47.693Z,6.38
2022-12-11T12:49:18.037Z,6.57
2022-12-11T12:51:48.293Z,7.40
2022-12-11T12:54:20.718Z,8.20
2022-12-11T12:56:50.048Z,13.90
2022-12-11T12:59:23.218Z,11.63
2022-12-11T13:01:55.406Z,9.73
2022-12-11T13:04:55.583Z,10.50
2022-12-11T13:07:30.102Z,10.30
2022-12-11T13:10:04.224Z,12.53
2022-12-11T13:12:43.548Z,9.83
2022-12-11T13:15:35.703Z,8.57
2022-12-11T13:18:06.193Z,13.00
2022-12-11T13:20:35.693Z,10.60
2022-12-11T13:23:18.196Z,8.40
2022-12-11T13:25:56.222Z,8.17
2022-12-11T13:28:34.526Z,7.90
2022-12-11T13:31:07.726Z,8.63
2022-12-11T13:33:43.064Z,8.10
2022-12-11T13:36:33.738Z,8.00
2022-12-11T13:39:05.848Z,8.53
2022-12-11T13:41:38.765Z,7.70
2022-12-11T13:44:08.438Z,7.17
2022-12-11T13:46:39.117Z,11.20
2022-12-11T13:49:08.829Z,10.33
2022-12-11T13:51:38.373Z,10.57
2022-12-11T13:54:17.248Z,11.40
2022-12-11T13:56:57.270Z,10.17
2022-12-11T13:59:29.543Z,7.67
2022-12-11T14:02:02.464Z,8.70
2022-12-11T14:04:31.487Z,8.60
2022-12-11T14:07:00.555Z,7.67
2022-12-11T14:09:29.817Z,10.03
2022-12-11T14:11:59.652Z,9.87
2022-12-11T14:14:36.210Z,7.83
2022-12-11T14:17:05.060Z,7.53
2022-12-11T14:19:33.384Z,6.60
2022-12-11T14:22:03.198Z,6.17
2022-12-11T14:24:33.114Z,6.60
2022-12-11T14:27:04.825Z,7.20
2022-12-11T14:29:34.903Z,6.50
2022-12-11T14:32:06.891Z,5.50
2022-12-11T14:34:37.984Z,5.43
2022-12-11T14:37:08.965Z,5.60
2022-12-11T14:39:42.181Z,5.27
2022-12-11T14:42:16.809Z,7.90
2022-12-11T14:44:51.006Z,8.90
2022-12-11T14:47:22.919Z,18.47
2022-12-11T14:49:56.700Z,20.10
2022-12-11T14:52:29.919Z,14.67
2022-12-11T14:55:02.723Z,9.50
2022-12-11T14:57:34.659Z,8.80
2022-12-11T15:00:03.701Z,11.13
2022-12-11T15:02:33.655Z,13.07
2022-12-11T15:05:13.044Z,12.17
2022-12-11T15:07:42.874Z,7.90
2022-12-11T15:10:24.904Z,10.63
2022-12-11T15:12:55.730Z,17.30
2022-12-11T15:15:24.895Z,11.43
2022-12-11T15:17:53.948Z,9.00
2022-12-11T15:20:25.882Z,10.03
2022-12-11T15:22:55.110Z,11.77
2022-12-11T15:25:25.945Z,13.43
2022-12-11T15:27:57.511Z,14.33
2022-12-11T15:30:36.325Z,15.27
2022-12-11T15:33:22.204Z,18.57
2022-12-11T15:36:02.426Z,17.37
2022-12-11T15:38:36.895Z,13.83
2022-12-11T15:41:07.213Z,9.33
2022-12-11T15:43:39.418Z,7.17
2022-12-11T15:46:08.481Z,6.60
2022-12-11T15:48:36.749Z,12.07
2022-12-11T15:51:05.371Z,17.40
2022-12-11T15:53:33.619Z,11.00
2022-12-11T15:56:02.535Z,8.40
2022-12-11T15:58:31.377Z,8.57
2022-12-11T16:01:01.136Z,9.70
2022-12-11T16:03:30.271Z,9.57
2022-12-11T16:05:58.926Z,10.87
2022-12-11T16:08:27.398Z,13.93
2022-12-11T16:10:56.596Z,9.70
2022-12-11T16:13:25.025Z,10.07
2022-12-11T16:15:54.587Z,7.83
2022-12-11T16:18:26.527Z,5.57
2022-12-11T16:20:57.267Z,5.57
2022-12-11T16:23:28.080Z,6.63
2022-12-11T16:25:56.942Z,6.60
2022-12-11T16:28:25.627Z,7.27
2022-12-11T16:30:54.695Z,6.23
2022-12-11T16:33:24.934Z,17.37
2022-12-11T16:35:53.563Z,18.73
2022-12-11T16:38:21.994Z,14.27
2022-12-11T16:40:50.374Z,12.00
2022-12-11T16:43:18.774Z,12.70
2022-12-11T16:45:47.217Z,13.47
2022-12-11T16:48:15.615Z,11.47
2022-12-11T16:50:45.545Z,11.07
2022-12-11T16:53:14.861Z,11.60
2022-12-11T16:55:44.151Z,11.10
2022-12-11T16:58:16.382Z,9.47
2022-12-11T17:00:44.930Z,9.03
2022-12-11T17:03:13.660Z,8.37
2022-12-11T17:05:45.151Z,9.00
2022-12-11T17:08:14.055Z,9.33
2022-12-11T17:10:44.050Z,15.53
2022-12-11T17:13:12.925Z,14.53
2022-12-11T17:15:42.828Z,13.43
2022-12-11T17:18:12.552Z,9.57
2022-12-11T17:20:43.080Z,6.80
2022-12-11T17:23:13.793Z,4.70
2022-12-11T17:25:42.438Z,4.27
2022-12-11T17:28:11.388Z,8.40
2022-12-11T17:30:42.021Z,9.50
2022-12-11T17:33:11.010Z,7.57
2022-12-11T17:35:39.970Z,8.00
2022-12-11T17:38:08.480Z,8.00
2022-12-11T17:40:41.494Z,8.03
2022-12-11T17:43:10.416Z,7.40
2022-12-11T17:45:42.659Z,8.20
2022-12-11T17:48:11.299Z,8.57
2022-12-11T17:50:42.819Z,12.80
2022-12-11T17:53:13.053Z,20.93
2022-12-11T17:55:44.010Z,29.47
2022-12-11T17:58:12.691Z,21.63
2022-12-11T18:00:42.744Z,15.60
2022-12-11T18:03:11.700Z,21.43
2022-12-11T18:05:43.658Z,25.03
2022-12-11T18:08:14.248Z,23.63
2022-12-11T18:10:44.683Z,19.33
2022-12-11T18:13:15.225Z,22.33
2022-12-11T18:15:43.797Z,24.83
2022-12-11T18:18:12.667Z,25.80
2022-12-11T18:20:42.136Z,26.40
2022-12-11T18:23:10.426Z,20.80
2022-12-11T18:25:39.095Z,18.70
2022-12-11T18:28:09.018Z,18.00
2022-12-11T18:30:37.381Z,19.07
2022-12-11T18:33:05.731Z,22.57
2022-12-11T18:35:34.107Z,29.57
2022-12-11T18:38:02.407Z,31.30
2022-12-11T18:40:30.757Z,28.87
2022-12-11T18:42:59.279Z,30.90
2022-12-11T18:45:30.723Z,28.37
2022-12-11T18:47:58.984Z,32.37
2022-12-11T18:50:27.608Z,29.17
2022-12-11T18:52:57.083Z,22.10
2022-12-11T18:55:25.565Z,22.70
2022-12-11T18:57:54.006Z,26.23
2022-12-11T19:00:23.185Z,27.80
2022-12-11T19:02:53.361Z,25.60
2022-12-11T19:05:21.925Z,25.50
2022-12-11T19:07:50.191Z,22.90
2022-12-11T19:10:18.764Z,24.37
2022-12-11T19:12:47.145Z,24.57
2022-12-11T19:15:19.476Z,23.77
2022-12-11T19:17:50.772Z,24.43
2022-12-11T19:23:09.439Z,24.00
2022-12-11T19:25:43.872Z,25.90
2022-12-11T19:28:12.980Z,24.97
2022-12-11T19:30:44.155Z,20.70
2022-12-11T19:33:12.684Z,19.53
2022-12-11T19:35:42.943Z,18.03
2022-12-11T19:38:12.836Z,21.30
2022-12-11T19:40:42.327Z,24.83
2022-12-11T19:43:10.718Z,25.03
2022-12-11T19:45:39.685Z,19.90
2022-12-11T19:48:08.198Z,14.63
2022-12-11T19:50:37.460Z,15.07
2022-12-11T19:53:07.499Z,17.13
2022-12-11T19:55:35.849Z,18.87
2022-12-11T19:58:04.187Z,22.03
2022-12-11T20:00:32.678Z,18.33
2022-12-11T20:03:01.092Z,14.73
2022-12-11T20:05:29.480Z,15.37
2022-12-11T20:08:27.379Z,21.77
2022-12-11T20:10:50.176Z,22.37
2022-12-11T20:13:18.497Z,20.60
2022-12-11T20:15:47.009Z,20.73
2022-12-11T20:18:18.588Z,19.37
2022-12-11T20:20:47.548Z,14.13
2022-12-11T20:23:15.959Z,14.10
2022-12-11T20:25:44.495Z,13.27
2022-12-11T20:28:14.333Z,12.03
2022-12-11T20:30:42.885Z,10.37
2022-12-11T20:33:11.206Z,9.53
2022-12-11T20:35:42.801Z,9.80
2022-12-11T20:38:12.247Z,12.03
2022-12-11T20:40:40.759Z,16.57
2022-12-11T20:43:09.171Z,20.93
2022-12-11T20:45:39.012Z,18.83
2022-12-11T20:48:07.549Z,21.00
2022-12-11T20:50:36.031Z,22.83
2022-12-11T20:53:04.514Z,20.97
2022-12-11T20:55:33.216Z,19.30
2022-12-11T20:58:01.782Z,17.80
2022-12-11T21:00:30.484Z,15.27
2022-12-11T21:03:00.717Z,14.23
2022-12-11T21:05:29.245Z,13.73
2022-12-11T21:07:57.669Z,12.33
2022-12-11T21:10:26.186Z,10.17
2022-12-11T21:12:54.814Z,9.40
2022-12-11T21:15:23.269Z,9.20
2022-12-11T21:17:51.595Z,8.70
2022-12-11T21:20:22.880Z,7.47
2022-12-11T21:22:53.773Z,7.73
2022-12-11T21:25:22.805Z,8.90
2022-12-11T21:27:51.302Z,8.03
2022-12-11T21:30:20.394Z,7.40
2022-12-11T21:32:48.824Z,7.37
2022-12-11T21:35:17.278Z,8.00
2022-12-11T21:37:47.373Z,9.13
2022-12-11T21:40:16.153Z,14.80
2022-12-11T21:42:44.700Z,14.63
2022-12-11T21:48:01.393Z,11.87
2022-12-11T21:50:29.755Z,11.80
2022-12-11T21:52:59.863Z,10.93
2022-12-11T21:55:28.192Z,10.57
2022-12-11T21:57:56.876Z,10.10
2022-12-11T22:00:25.511Z,9.80
2022-12-11T22:02:53.917Z,9.47
2022-12-11T22:05:22.469Z,10.60
2022-12-11T22:07:50.914Z,9.20
2022-12-11T22:10:20.945Z,7.73
2022-12-11T22:12:49.242Z,7.77
2022-12-11T22:15:17.781Z,8.30
2022-12-11T22:17:46.268Z,10.77
2022-12-11T22:20:14.727Z,17.33
2022-12-11T22:22:43.203Z,16.83
2022-12-11T22:25:12.216Z,22.50
2022-12-11T22:27:42.031Z,24.90
2022-12-11T22:30:12.228Z,21.43
2022-12-11T22:32:40.901Z,16.90
2022-12-11T22:35:11.050Z,13.80
2022-12-11T22:37:39.793Z,14.80
2022-12-11T22:40:09.051Z,12.93
2022-12-11T22:42:37.860Z,12.17
2022-12-11T22:45:09.189Z,12.63
2022-12-11T22:47:39.056Z,10.73
2022-12-11T22:50:08.552Z,8.40
2022-12-11T22:52:37.678Z,7.97
2022-12-11T22:55:07.111Z,6.70
2022-12-11T22:57:37.517Z,6.83
2022-12-11T23:00:10.176Z,5.73
2022-12-11T23:02:38.723Z,7.20
2022-12-11T23:05:08.305Z,6.27
2022-12-11T23:07:36.624Z,5.70
2022-12-11T23:10:05.861Z,6.20
2022-12-11T23:12:34.268Z,6.30
2022-12-11T23:15:02.604Z,5.23
2022-12-11T23:17:32.682Z,5.20
2022-12-11T23:20:04.054Z,4.57
2022-12-11T23:22:32.904Z,4.63
2022-12-11T23:25:01.747Z,4.80
2022-12-11T23:27:31.072Z,5.47
2022-12-11T23:29:59.651Z,5.50
2022-12-11T23:32:28.198Z,5.33
2022-12-11T23:34:58.125Z,5.37
2022-12-11T23:37:26.690Z,4.67
2022-12-11T23:39:55.290Z,5.73
2022-12-11T23:42:23.852Z,4.40
2022-12-11T23:44:52.419Z,3.63
2022-12-11T23:47:21.195Z,3.60
2022-12-11T23:49:49.851Z,4.00
2022-12-11T23:52:19.988Z,3.67
2022-12-11T23:54:48.479Z,4.03
2022-12-11T23:57:17.072Z,3.30
2022-12-11T23:59:45.656Z,2.80
